Gustine, California
Current Conditions -  °F | °C
As of 11:15 PM on Sunday 23 Nov 2014 (Local Time) from KMER Reporting Station
Clear Clear  
Wind Chill: 46°   Ceiling: Unl
Heat Index: 46°   Visibility: 10mi
Dew Point: 46°   Wind: 3mph
Humidity: 100%   Direction: 310°NW
Pressure: 30.32"   Gusts: NA
Location:  37.26°N, 121°W
Report Text: KMER 240715Z AUTO 31003KT 10SM CLR 08/08 A3032 RMK AO1
Loading
Personal Weather Stations






























Interactive Weather Map New forecast layout! Learn more

10-Day Weather Forecast

Advertisements
Track Severe Weather on mobile